FW2294 Weather Reports


Display with metric or nautical units.
time (UTC)temp
F
wind
direction
speed
MPH
gust
MPH
rain 1hr
in
rain 24hr
in
rain mn
in
humidity
%
barometer
mb
20210805133802 72 180 2.0 3.0 0.00 0.00 0.00 74 1019.2
20210805133259 71 54 1.0 1.0 0.00 0.00 0.00 74 1019.2
20210805132757 70 158 0.0 1.0 0.00 0.00 0.00 75 1019.2
20210805132745 68 159 0.0 6.0 0.00 0.00 0.00 86 1019.4
20210805132256 71 77 3.0 3.0 0.00 0.00 0.00 77 1019.2
20210805131754 70 117 1.0 1.0 0.00 0.00 0.00 77 1019.2
20210805131253 70 86 2.0 3.0 0.00 0.00 0.00 77 1019.2
20210805131236 67 86 2.0 6.0 0.00 0.00 0.00 88 1019.5
20210805130751 69 142 3.0 3.0 0.00 0.00 0.00 78 1018.9
20210805130251 69 79 0.0 1.0 0.00 0.00 0.00 80 1018.9
20210805125748 69 148 2.0 3.0 0.00 0.00 0.00 79 1018.5
20210805125735 66 119 2.0 4.0 0.00 0.00 0.00 92 1019.3
20210805125247 69 64 1.0 1.0 0.00 0.00 0.00 79 1018.5
20210805124744 68 81 0.0 1.0 0.00 0.00 0.00 81 1018.5
20210805124240 66 243 0.0 0.0 0.00 0.00 0.00 83 1018.5
20210805124233 65 243 0.0 3.0 0.00 0.00 0.00 93 1019.2
20210805123738 66 218 2.0 2.0 0.00 0.00 0.00 85 1018.5
20210805123237 65 122 2.0 3.0 0.00 0.00 0.00 85 1018.5
20210805122736 64 176 2.0 2.0 0.00 0.00 0.00 88 1018.9
20210805122732 64 176 2.0 3.0 0.00 0.00 0.00 94 1019.1
20210805122234 63 204 1.0 1.0 0.00 0.00 0.00 90 1018.5
20210805121733 63 197 2.0 2.0 0.00 0.00 0.00 91 1018.5
20210805121230 62 339 1.0 1.0 0.00 0.00 0.00 92 1018.5
20210805120727 61 339 1.0 1.0 0.00 0.00 0.00 92 1018.5
20210805120227 60 340 1.0 1.0 0.00 0.00 0.00 92 1018.5
20210805115731 61 339 0.0 1.0 0.00 0.00 0.00 93 1019.1
20210805115725 60 339 0.0 0.0 0.00 0.00 0.00 92 1018.5
20210805115223 59 339 0.0 1.0 0.00 0.00 0.00 92 1018.5
20210805114722 59 339 0.0 1.0 0.00 0.00 0.00 92 1018.5
20210805114229 61 339 0.0 1.0 0.00 0.00 0.00 92 1019.0
20210805114220 59 339 0.0 0.0 0.00 0.00 0.00 92 1018.5
20210805113720 59 339 0.0 0.0 0.00 0.00 0.00 92 1018.5
20210805113219 59 339 0.0 1.0 0.00 0.00 0.00 92 1018.5
20210805112723 61 339 0.0 0.0 0.00 0.00 0.00 92 1019.2
20210805112718 59 339 0.0 0.0 0.00 0.00 0.00 92 1018.5
20210805112216 59 339 0.0 0.0 0.00 0.00 0.00 92 1018.5
20210805111716 59 339 0.0 0.0 0.00 0.00 0.00 92 1018.5
20210805111219 61 339 0.0 1.0 0.00 0.00 0.00 92 1018.9
20210805111215 58 339 0.0 0.0 0.00 0.00 0.00 92 1018.5
20210805110713 58 339 0.0 0.0 0.00 0.00 0.00 92 1018.5
20210805110212 58 339 0.0 1.0 0.00 0.00 0.00 92 1018.5
20210805105724 60 339 0.0 0.0 0.00 0.00 0.00 91 1019.2
20210805105710 58 339 0.0 0.0 0.00 0.00 0.00 92 1018.5
20210805105210 58 339 0.0 0.0 0.00 0.00 0.00 92 1018.5
20210805104708 58 339 0.0 0.0 0.00 0.00 0.00 92 1018.5
20210805104216 60 339 0.0 1.0 0.00 0.00 0.00 91 1019.1
20210805104207 58 339 0.0 0.0 0.00 0.00 0.00 92 1018.5
20210805103706 58 339 0.0 0.0 0.00 0.00 0.00 92 1018.5
20210805103205 57 339 0.0 0.0 0.00 0.00 0.00 92 1018.2
20210805102714 60 339 0.0 1.0 0.00 0.00 0.00 91 1019.2
20210805102704 57 339 0.0 0.0 0.00 0.00 0.00 92 1018.5
20210805102202 57 339 1.0 1.0 0.00 0.00 0.00 92 1018.2
20210805101701 57 339 0.0 0.0 0.00 0.00 0.00 92 1018.5
20210805101213 60 339 0.0 1.0 0.00 0.00 0.00 91 1019.0
20210805101200 57 339 0.0 0.0 0.00 0.00 0.00 92 1018.5
20210805100658 58 339 0.0 0.0 0.00 0.00 0.00 92 1018.2
20210805100157 58 339 0.0 0.0 0.00 0.00 0.00 92 1018.2
20210805095710 60 339 0.0 1.0 0.00 0.00 0.00 90 1018.8
20210805095654 58 339 0.0 0.0 0.00 0.00 0.00 92 1018.2
20210805095152 58 339 0.0 0.0 0.00 0.00 0.00 92 1018.2
20210805094651 58 339 0.0 0.0 0.00 0.00 0.00 92 1018.2
20210805094213 60 339 1.0 1.0 0.00 0.00 0.00 90 1018.9
20210805094149 58 339 0.0 0.0 0.00 0.00 0.00 92 1018.2
20210805093648 58 339 0.0 0.0 0.00 0.00 0.00 92 1018.2
20210805093147 58 339 0.0 0.0 0.00 0.00 0.00 92 1018.2
20210805092709 61 339 0.0 0.0 0.00 0.00 0.00 90 1018.9
20210805092645 58 339 0.0 0.0 0.00 0.00 0.00 92 1018.2
20210805092143 58 339 0.0 0.0 0.00 0.00 0.00 92 1018.2
20210805091642 58 339 0.0 0.0 0.00 0.00 0.00 92 1017.9
20210805091205 60 339 0.0 0.0 0.00 0.00 0.00 90 1018.8
20210805091140 57 339 0.0 0.0 0.00 0.00 0.00 92 1017.9
20210805090640 57 339 0.0 0.0 0.00 0.00 0.00 92 1017.9
20210805090138 58 339 0.0 0.0 0.00 0.00 0.00 92 1018.2
20210805085703 60 339 0.0 2.0 0.00 0.00 0.00 90 1018.7
20210805085637 58 339 0.0 0.0 0.00 0.00 0.00 92 1018.2
20210805085136 58 339 0.0 1.0 0.00 0.00 0.00 92 1018.2
20210805084635 58 342 1.0 1.0 0.00 0.00 0.00 92 1018.2
20210805084206 60 356 1.0 1.0 0.00 0.00 0.00 89 1018.9
20210805084133 57 356 1.0 1.0 0.00 0.00 0.00 92 1018.2
20210805083632 57 356 0.0 0.0 0.00 0.00 0.00 92 1017.9
20210805083127 58 356 0.0 0.0 0.00 0.00 0.00 92 1017.9
20210805082651 60 356 0.0 1.0 0.00 0.00 0.00 89 1018.6
20210805082626 57 356 0.0 0.0 0.00 0.00 0.00 92 1017.9
20210805082125 57 356 0.0 0.0 0.00 0.00 0.00 92 1017.9
20210805081623 58 356 0.0 0.0 0.00 0.00 0.00 92 1017.9
20210805081146 61 356 0.0 1.0 0.00 0.00 0.00 88 1018.6
20210805081122 57 356 0.0 0.0 0.00 0.00 0.00 92 1017.9
20210805080620 58 356 0.0 1.0 0.00 0.00 0.00 92 1018.2
20210805080119 58 355 0.0 0.0 0.00 0.00 0.00 92 1018.2
20210805075648 61 356 0.0 1.0 0.00 0.00 0.00 87 1018.9
20210805075616 57 355 0.0 0.0 0.00 0.00 0.00 92 1018.2
20210805075116 57 356 0.0 0.0 0.00 0.00 0.00 92 1018.2
20210805074616 58 356 0.0 0.0 0.00 0.00 0.00 92 1018.2
20210805074142 61 356 0.0 0.0 0.00 0.00 0.00 87 1019.1
20210805074111 58 356 0.0 0.0 0.00 0.00 0.00 92 1018.5
20210805073609 57 356 0.0 0.0 0.00 0.00 0.00 92 1018.5
20210805073105 58 356 0.0 0.0 0.00 0.00 0.00 92 1018.5
20210805072639 62 356 0.0 1.0 0.00 0.00 0.00 87 1019.1
20210805072604 58 356 0.0 0.0 0.00 0.00 0.00 92 1018.5
20210805072103 58 356 0.0 0.0 0.00 0.00 0.00 92 1018.5
20210805071601 58 356 0.0 0.0 0.00 0.00 0.00 92 1018.5
20210805071138 62 356 0.0 0.0 0.00 0.00 0.00 86 1019.1
20210805071059 58 356 0.0 0.0 0.00 0.00 0.00 92 1018.5
20210805070558 58 356 0.0 0.0 0.00 0.00 0.00 92 1018.5
20210805070058 58 356 0.0 0.0 0.00 0.00 0.00 92 1018.5
20210805065640 62 356 0.0 0.0 0.00 0.00 0.00 86 1019.3
20210805065557 58 356 0.0 0.0 0.00 0.00 0.00 92 1018.5
20210805065056 58 356 0.0 0.0 0.00 0.00 0.00 92 1018.5
20210805064555 59 356 0.0 0.0 0.00 0.00 0.00 92 1018.5
20210805064142 62 356 0.0 1.0 0.00 0.00 0.00 86 1019.4
20210805064055 59 356 0.0 0.0 0.00 0.00 0.00 92 1018.9
20210805063553 59 356 0.0 0.0 0.00 0.00 0.00 92 1018.9
20210805063053 59 356 1.0 1.0 0.00 0.00 0.00 92 1018.9
20210805062631 63 356 0.0 1.0 0.00 0.00 0.00 86 1019.5
20210805062547 59 356 0.0 0.0 0.00 0.00 0.00 92 1018.9
20210805062045 59 356 0.0 0.0 0.00 0.00 0.00 92 1018.9
20210805061543 59 356 0.0 0.0 0.00 0.00 0.00 92 1018.9
20210805061134 63 356 0.0 1.0 0.00 0.00 0.00 85 1019.7
20210805061041 59 356 0.0 0.0 0.00 0.00 0.00 92 1018.9
20210805060539 59 356 0.0 0.0 0.00 0.00 0.00 92 1019.2
20210805060039 59 356 0.0 0.0 0.00 0.00 0.00 92 1018.9
20210805055627 64 356 0.0 1.0 0.00 0.00 0.00 85 1019.4
20210805055538 59 356 0.0 0.0 0.00 0.00 0.00 92 1018.9
20210805055032 60 356 0.0 0.0 0.00 0.00 0.00 92 1018.9
20210805054532 60 356 0.0 0.0 0.00 0.00 0.00 92 1018.9
20210805054125 64 356 0.0 0.0 0.00 0.00 0.00 84 1019.4
20210805054030 60 356 0.0 0.0 0.00 0.00 0.00 92 1018.9
20210805053528 60 356 0.0 0.0 0.00 0.00 0.00 92 1018.9
20210805053026 60 356 0.0 0.0 0.00 0.00 0.00 92 1018.9
20210805052623 64 356 0.0 1.0 0.00 0.00 0.00 84 1019.5
20210805052525 60 356 0.0 0.0 0.00 0.00 0.00 92 1019.2
20210805052022 60 356 0.0 0.0 0.00 0.00 0.00 92 1018.9
20210805051522 61 356 0.0 0.0 0.00 0.00 0.00 92 1018.9
20210805051126 65 356 0.0 1.0 0.00 0.00 0.00 84 1019.4
20210805051021 61 356 0.0 0.0 0.00 0.00 0.00 92 1018.9
20210805050520 61 356 0.0 1.0 0.00 0.00 0.00 92 1018.9
20210805050018 61 356 0.0 0.0 0.00 0.00 0.00 92 1019.2
20210805045619 66 356 0.0 0.0 0.00 0.00 0.00 83 1019.5
20210805045517 61 356 0.0 0.0 0.00 0.00 0.00 92 1019.2
20210805045015 62 356 0.0 0.0 0.00 0.00 0.00 92 1019.2
20210805044514 62 356 0.0 0.0 0.00 0.00 0.00 92 1018.9
20210805044106 66 356 0.0 0.0 0.00 0.00 0.00 83 1019.6
20210805044010 62 356 0.0 0.0 0.00 0.00 0.00 92 1019.2
20210805043509 62 356 0.0 0.0 0.00 0.00 0.00 92 1019.2
20210805043006 62 356 0.0 0.0 0.00 0.00 0.00 92 1019.2
20210805042610 67 356 0.0 0.0 0.00 0.00 0.00 82 1019.8
20210805042503 62 356 0.0 0.0 0.00 0.00 0.00 91 1019.2
20210805042001 63 356 0.0 0.0 0.00 0.00 0.00 90 1019.6
20210805041456 63 356 0.0 0.0 0.00 0.00 0.00 90 1019.6
20210805041102 67 356 0.0 0.0 0.00 0.00 0.00 82 1019.8
20210805040955 63 356 0.0 0.0 0.00 0.00 0.00 90 1019.6
20210805040454 64 356 0.0 0.0 0.00 0.00 0.00 89 1019.6
20210805035951 64 356 0.0 0.0 0.00 0.00 0.00 89 1019.6
20210805035601 68 356 0.0 0.0 0.00 0.00 0.00 81 1019.7
20210805035449 64 356 0.0 0.0 0.00 0.00 0.00 89 1019.6
20210805034946 64 356 0.0 0.0 0.00 0.00 0.00 88 1019.6
20210805034443 64 356 0.0 0.0 0.00 0.00 0.00 87 1019.2
20210805034058 68 356 0.0 0.0 0.00 0.00 0.00 80 1019.6
20210805033940 65 356 0.0 0.0 0.00 0.00 0.00 87 1019.6
20210805033439 65 356 0.0 0.0 0.00 0.00 0.00 86 1019.6
20210805032937 65 356 0.0 0.0 0.00 0.00 0.00 86 1019.6
20210805032544 68 356 0.0 0.0 0.00 0.00 0.00 80 1019.7
20210805032435 65 356 0.0 0.0 0.00 0.00 0.00 86 1019.6
20210805031935 65 356 0.0 0.0 0.00 0.00 0.00 86 1019.6
20210805031434 65 356 0.0 0.0 0.00 0.00 0.00 86 1019.6
20210805031043 69 356 0.0 0.0 0.00 0.00 0.00 79 1019.6
20210805030933 65 356 0.0 0.0 0.00 0.00 0.00 85 1019.6
20210805030432 65 356 0.0 0.0 0.00 0.00 0.00 85 1019.6
20210805025930 65 356 0.0 0.0 0.00 0.00 0.00 85 1019.9
20210805025542 69 356 0.0 0.0 0.00 0.00 0.00 78 1019.7
20210805025429 65 356 0.0 0.0 0.00 0.00 0.00 85 1019.6
20210805024928 65 356 0.0 0.0 0.00 0.00 0.00 85 1019.9
20210805024426 65 356 0.0 0.0 0.00 0.00 0.00 85 1019.9
20210805024040 69 356 0.0 0.0 0.00 0.00 0.00 78 1019.9
20210805023925 65 356 0.0 0.0 0.00 0.00 0.00 84 1019.9
20210805023423 65 356 0.0 0.0 0.00 0.00 0.00 84 1019.9
20210805022921 65 356 0.0 0.0 0.00 0.00 0.00 84 1019.9
20210805022542 69 356 0.0 2.0 0.00 0.00 0.00 77 1020.1
20210805022420 66 356 0.0 0.0 0.00 0.00 0.00 83 1020.2
20210805021919 66 356 0.0 0.0 0.00 0.00 0.00 83 1019.9
20210805021417 66 356 0.0 0.0 0.00 0.00 0.00 83 1020.2
20210805021036 70 356 1.0 1.0 0.00 0.00 0.00 76 1019.9
20210805020905 66 356 0.0 0.0 0.00 0.00 0.00 83 1020.2
20210805020404 66 356 0.0 1.0 0.00 0.00 0.00 83 1020.2
20210805015903 66 356 0.0 0.0 0.00 0.00 0.00 83 1019.9
20210805015532 70 356 0.0 1.0 0.00 0.00 0.00 76 1020.1
20210805015402 66 356 0.0 1.0 0.00 0.00 0.00 83 1019.9
20210805014859 66 356 0.0 0.0 0.00 0.00 0.00 83 1020.2
20210805014355 66 356 0.0 0.0 0.00 0.00 0.00 83 1019.9
20210805014020 70 356 0.0 1.0 0.00 0.00 0.00 76 1020.1
20210805013851 66 356 0.0 0.0 0.00 0.00 0.00 80 1020.2
20210805013349 66 355 0.0 0.0 0.00 0.00 0.00 81 1020.2
20210805012848 66 356 0.0 0.0 0.00 0.00 0.00 83 1019.9
20210805012517 71 356 0.0 0.0 0.00 0.00 0.00 75 1019.9
20210805012347 66 356 0.0 0.0 0.00 0.00 0.00 84 1019.9
20210805011844 66 356 0.0 0.0 0.00 0.00 0.00 83 1019.9
20210805011342 66 356 0.0 0.0 0.00 0.00 0.00 83 1019.9
20210805011016 71 356 0.0 1.0 0.00 0.00 0.00 74 1019.7
20210805010839 66 356 0.0 0.0 0.00 0.00 0.00 83 1019.9
20210805010338 66 356 0.0 0.0 0.00 0.00 0.00 82 1019.6
20210805005838 66 356 0.0 0.0 0.00 0.00 0.00 82 1019.6
20210805005515 71 356 0.0 2.0 0.00 0.00 0.00 73 1019.6
20210805005331 66 356 0.0 0.0 0.00 0.00 0.00 81 1019.6
20210805004831 66 356 0.0 1.0 0.00 0.00 0.00 81 1019.6
20210805004328 67 358 2.0 2.0 0.00 0.00 0.00 82 1019.6
20210805004012 72 130 0.0 1.0 0.00 0.00 0.00 72 1019.5
20210805003828 67 130 0.0 0.0 0.00 0.00 0.00 82 1019.9
20210805003327 67 132 0.0 0.0 0.00 0.00 0.00 81 1019.6
20210805002825 67 133 0.0 0.0 0.00 0.00 0.00 81 1019.9
20210805002509 73 132 0.0 1.0 0.00 0.00 0.00 72 1019.6
20210805002326 68 134 0.0 1.0 0.00 0.00 0.00 81 1019.6
20210805001824 68 136 0.0 0.0 0.00 0.00 0.00 80 1019.6
20210805001323 68 136 0.0 0.0 0.00 0.00 0.00 79 1019.6
20210805000958 73 136 0.0 1.0 0.00 0.00 0.00 70 1019.6
20210805000822 69 136 0.0 0.0 0.00 0.00 0.00 79 1019.6
20210805000320 69 138 0.0 0.0 0.00 0.00 0.00 76 1019.9
20210804235818 69 138 0.0 0.0 0.00 0.00 0.00 76 1019.9
20210804235500 74 138 0.0 0.0 0.00 0.00 0.00 69 1019.5
20210804235317 69 138 0.0 0.0 0.00 0.00 0.00 75 1019.9
20210804234814 69 137 0.0 0.0 0.00 0.00 0.00 73 1019.9
20210804234314 70 138 0.0 0.0 0.00 0.00 0.00 75 1019.6
20210804233953 75 138 0.0 0.0 0.00 0.00 0.00 68 1019.3
20210804233813 70 138 0.0 0.0 0.00 0.00 0.00 71 1019.6
20210804233311 70 138 0.0 0.0 0.00 0.00 0.00 70 1019.6
20210804232809 71 138 0.0 0.0 0.00 0.00 0.00 72 1019.6
20210804232451 75 138 0.0 3.0 0.00 0.00 0.00 67 1019.1
20210804232308 71 138 0.0 0.0 0.00 0.00 0.00 70 1019.9
20210804231807 71 138 0.0 0.0 0.00 0.00 0.00 68 1019.6
20210804231305 71 139 1.0 1.0 0.00 0.00 0.00 67 1019.6
20210804230948 76 171 0.0 2.0 0.00 0.00 0.00 67 1019.2
20210804230805 71 171 0.0 0.0 0.00 0.00 0.00 68 1019.6
20210804230259 71 170 1.0 1.0 0.00 0.00 0.00 68 1019.6
20210804225758 71 173 0.0 0.0 0.00 0.00 0.00 72 1019.6
20210804225448 76 117 1.0 2.0 0.00 0.00 0.00 69 1019.0
20210804225257 72 108 0.0 0.0 0.00 0.00 0.00 73 1019.6
20210804224756 72 107 0.0 0.0 0.00 0.00 0.00 72 1019.6
20210804224252 72 106 0.0 0.0 0.00 0.00 0.00 72 1019.6
20210804223950 76 106 0.0 1.0 0.00 0.00 0.00 67 1019.3
20210804223752 72 107 0.0 0.0 0.00 0.00 0.00 70 1019.6
20210804223250 72 107 0.0 0.0 0.00 0.00 0.00 72 1019.6
20210804222748 73 108 0.0 0.0 0.00 0.00 0.00 69 1019.6
20210804222452 77 107 0.0 3.0 0.00 0.00 0.00 64 1019.3
20210804222246 72 108 0.0 0.0 0.00 0.00 0.00 68 1019.9
20210804221745 72 108 0.0 1.0 0.00 0.00 0.00 68 1019.6
20210804221244 72 116 2.0 2.0 0.00 0.00 0.00 67 1019.6
20210804220941 77 105 3.0 3.0 0.00 0.00 0.00 63 1019.1
20210804220743 72 147 1.0 1.0 0.00 0.00 0.00 65 1019.6
20210804220242 72 45 0.0 0.0 0.00 0.00 0.00 66 1019.2
20210804215740 73 114 1.0 1.0 0.00 0.00 0.00 68 1019.6
20210804215439 77 124 2.0 4.0 0.00 0.00 0.00 61 1019.1
20210804215239 73 91 1.0 2.0 0.00 0.00 0.00 65 1019.6
20210804214739 73 191 2.0 2.0 0.00 0.00 0.00 63 1019.6
20210804214239 74 160 2.0 3.0 0.00 0.00 0.00 63 1019.6
20210804213938 78 185 2.0 3.0 0.00 0.00 0.00 62 1019.2
20210804213737 74 177 1.0 1.0 0.00 0.00 0.00 64 1019.6
20210804213235 74 143 1.0 1.0 0.00 0.00 0.00 64 1019.6
20210804212735 74 134 1.0 1.0 0.00 0.00 0.00 64 1019.6
20210804212435 78 176 0.0 2.0 0.00 0.00 0.00 61 1018.9
20210804212229 74 177 0.0 0.0 0.00 0.00 0.00 65 1019.6
20210804211729 74 180 0.0 0.0 0.00 0.00 0.00 63 1019.9
20210804211228 74 181 1.0 1.0 0.00 0.00 0.00 62 1019.6
20210804210942 78 181 1.0 2.0 0.00 0.00 0.00 61 1019.1
20210804210728 74 179 1.0 1.0 0.00 0.00 0.00 60 1019.9
20210804210227 73 113 1.0 2.0 0.00 0.00 0.00 62 1019.6
20210804205727 73 132 1.0 1.0 0.00 0.00 0.00 61 1019.9
20210804205431 78 161 2.0 6.0 0.00 0.00 0.00 60 1019.1
20210804205226 73 91 1.0 1.0 0.00 0.00 0.00 64 1019.6
20210804204721 73 202 1.0 2.0 0.00 0.00 0.00 65 1019.6
20210804204221 74 70 1.0 2.0 0.00 0.00 0.00 62 1019.6
20210804203929 78 120 3.0 6.0 0.00 0.00 0.00 59 1019.2
20210804203720 75 210 2.0 2.0 0.00 0.00 0.00 60 1019.6
20210804203219 75 201 2.0 2.0 0.00 0.00 0.00 61 1019.6
20210804202718 75 66 2.0 3.0 0.00 0.00 0.00 58 1019.6
20210804202429 79 121 3.0 8.0 0.00 0.00 0.00 62 1019.1
20210804202215 75 110 1.0 1.0 0.00 0.00 0.00 63 1019.9
20210804201714 74 192 2.0 3.0 0.00 0.00 0.00 62 1019.6
20210804201206 74 74 2.0 2.0 0.00 0.00 0.00 65 1019.9
20210804200926 78 73 0.0 3.0 0.00 0.00 0.00 66 1019.5
20210804200703 74 75 1.0 1.0 0.00 0.00 0.00 69 1019.9
20210804200201 74 64 1.0 1.0 0.00 0.00 0.00 65 1019.9
20210804195700 73 190 2.0 2.0 0.00 0.00 0.00 67 1020.2
20210804195424 78 42 2.0 4.0 0.00 0.00 0.00 63 1019.5
20210804195159 73 117 1.0 2.0 0.00 0.00 0.00 68 1019.9
20210804194657 74 189 1.0 1.0 0.00 0.00 0.00 67 1019.9
20210804194157 73 130 1.0 2.0 0.00 0.00 0.00 67 1019.9
20210804193922 78 100 2.0 6.0 0.00 0.00 0.00 64 1019.1
20210804193653 74 114 2.0 3.0 0.00 0.00 0.00 66 1019.9
20210804193149 75 32 2.0 3.0 0.00 0.00 0.00 67 1020.2
20210804192647 75 46 3.0 4.0 0.00 0.00 0.00 63 1020.2
20210804192418 78 62 3.0 4.0 0.00 0.00 0.00 65 1019.7
20210804192147 75 57 0.0 1.0 0.00 0.00 0.00 64 1020.2
20210804191644 75 31 1.0 1.0 0.00 0.00 0.00 63 1020.6
20210804191142 75 44 2.0 3.0 0.00 0.00 0.00 64 1020.2
20210804190916 78 75 0.0 6.0 0.00 0.00 0.00 64 1019.9
20210804190639 75 48 3.0 3.0 0.00 0.00 0.00 64 1020.2
20210804190139 75 39 0.0 1.0 0.00 0.00 0.00 64 1020.2
20210804185638 75 55 2.0 3.0 0.00 0.00 0.00 65 1020.6
20210804185420 78 94 1.0 4.0 0.00 0.00 0.00 65 1020.0
20210804185137 75 92 4.0 4.0 0.00 0.00 0.00 64 1020.6
20210804184636 75 358 1.0 2.0 0.00 0.00 0.00 65 1020.6
20210804184136 75 37 2.0 2.0 0.00 0.00 0.00 65 1020.6
20210804183913 77 8 0.0 4.0 0.00 0.00 0.00 64 1020.1
20210804183635 74 34 1.0 1.0 0.00 0.00 0.00 66 1020.9
20210804183134 74 55 2.0 3.0 0.00 0.00 0.00 64 1020.6
20210804182633 74 68 0.0 1.0 0.00 0.00 0.00 65 1020.9
20210804182411 77 74 1.0 4.0 0.00 0.00 0.00 65 1020.4
20210804182131 75 80 3.0 3.0 0.00 0.00 0.00 65 1020.9
20210804181630 74 50 0.0 0.0 0.00 0.00 0.00 67 1020.6
20210804181130 74 133 2.0 2.0 0.00 0.00 0.00 66 1020.9
20210804180910 77 121 3.0 4.0 0.00 0.00 0.00 67 1020.6
20210804180626 75 63 1.0 1.0 0.00 0.00 0.00 68 1020.9
20210804180125 74 358 1.0 1.0 0.00 0.00 0.00 67 1020.9
20210804175624 74 8 2.0 2.0 0.00 0.00 0.00 65 1020.6
20210804175407 76 343 1.0 4.0 0.00 0.00 0.00 66 1020.6
20210804175123 73 352 4.0 4.0 0.00 0.00 0.00 66 1020.9
20210804174622 73 106 0.0 1.0 0.00 0.00 0.00 69 1020.9
20210804174122 73 105 2.0 2.0 0.00 0.00 0.00 66 1020.9
20210804173905 76 44 1.0 4.0 0.00 0.00 0.00 66 1020.4
20210804173620 73 51 1.0 1.0 0.00 0.00 0.00 68 1020.9
20210804173118 73 116 1.0 2.0 0.00 0.00 0.00 68 1020.9
20210804172617 74 36 1.0 1.0 0.00 0.00 0.00 65 1020.9
20210804172404 76 28 2.0 6.0 0.00 0.00 0.00 66 1020.4
20210804172116 73 34 0.0 1.0 0.00 0.00 0.00 66 1020.9
20210804171612 73 47 1.0 1.0 0.00 0.00 0.00 67 1020.9
20210804171112 73 65 3.0 3.0 0.00 0.00 0.00 65 1020.9
20210804170901 75 1 2.0 6.0 0.00 0.00 0.00 65 1020.8
20210804170612 73 47 3.0 3.0 0.00 0.00 0.00 64 1020.6
20210804170111 73 117 4.0 4.0 0.00 0.00 0.00 67 1020.6
20210804165610 73 58 0.0 0.0 0.00 0.00 0.00 68 1020.6
20210804165400 75 69 2.0 6.0 0.00 0.00 0.00 71 1020.6
20210804165108 73 98 3.0 3.0 0.00 0.00 0.00 69 1020.6
20210804164607 72 47 1.0 2.0 0.00 0.00 0.00 69 1020.6
20210804164103 73 41 2.0 3.0 0.00 0.00 0.00 69 1020.6
20210804163857 75 100 2.0 8.0 0.00 0.00 0.00 70 1020.3
20210804163602 72 60 0.0 1.0 0.00 0.00 0.00 69 1020.2
20210804163101 72 38 3.0 4.0 0.00 0.00 0.00 70 1020.6
20210804162601 73 66 2.0 3.0 0.00 0.00 0.00 67 1020.9
20210804162359 74 55 1.0 6.0 0.00 0.00 0.00 71 1020.4
20210804162058 73 38 1.0 1.0 0.00 0.00 0.00 69 1020.6
20210804161557 73 103 2.0 3.0 0.00 0.00 0.00 68 1020.2
20210804161056 72 341 3.0 3.0 0.00 0.00 0.00 68 1020.6
20210804160847 74 28 3.0 6.0 0.00 0.00 0.00 72 1020.2
20210804160552 71 43 2.0 2.0 0.00 0.00 0.00 70 1020.6
20210804160051 72 114 2.0 2.0 0.00 0.00 0.00 68 1020.6
20210804155549 72 94 2.0 2.0 0.00 0.00 0.00 71 1020.6
20210804155345 73 142 4.0 7.0 0.00 0.00 0.00 75 1020.1
20210804155047 72 42 1.0 2.0 0.00 0.00 0.00 72 1020.2
20210804154545 72 168 1.0 2.0 0.00 0.00 0.00 75 1020.6
20210804154045 72 44 3.0 3.0 0.00 0.00 0.00 73 1020.6
20210804153843 73 66 2.0 3.0 0.00 0.00 0.00 75 1020.7
20210804153544 72 30 1.0 2.0 0.00 0.00 0.00 74 1020.6
20210804153044 72 102 0.0 0.0 0.00 0.00 0.00 73 1020.6
20210804152543 71 135 0.0 1.0 0.00 0.00 0.00 76 1020.6
20210804152345 72 154 4.0 4.0 0.00 0.00 0.00 80 1020.6
20210804152042 70 224 2.0 2.0 0.00 0.00 0.00 77 1020.6
20210804151542 70 187 1.0 1.0 0.00 0.00 0.00 78 1020.6
20210804151042 70 133 3.0 3.0 0.00 0.00 0.00 77 1020.9
20210804150839 72 139 0.0 4.0 0.00 0.00 0.00 82 1020.7
20210804150541 71 87 1.0 2.0 0.00 0.00 0.00 78 1020.6
20210804150039 71 86 2.0 2.0 0.00 0.00 0.00 78 1020.6
20210804145538 70 85 0.0 1.0 0.00 0.00 0.00 79 1020.6
20210804145338 71 86 2.0 3.0 0.00 0.00 0.00 81 1020.7
20210804145035 71 82 2.0 2.0 0.00 0.00 0.00 75 1020.6
20210804144535 71 56 0.0 0.0 0.00 0.00 0.00 78 1020.6
20210804144035 71 353 0.0 1.0 0.00 0.00 0.00 75 1020.6
20210804143838 70 40 1.0 3.0 0.00 0.00 0.00 83 1020.9
20210804143534 70 43 1.0 2.0 0.00 0.00 0.00 75 1020.6
20210804143025 69 340 0.0 1.0 0.00 0.00 0.00 77 1020.2
20210804142524 69 174 1.0 1.0 0.00 0.00 0.00 78 1020.6
20210804142332 69 93 1.0 2.0 0.00 0.00 0.00 86 1020.8
20210804142023 69 84 1.0 1.0 0.00 0.00 0.00 78 1020.6
20210804141522 69 5 0.0 0.0 0.00 0.00 0.00 78 1020.2
20210804141018 69 4 0.0 0.0 0.00 0.00 0.00 77 1020.2
20210804140831 68 4 0.0 2.0 0.00 0.00 0.00 87 1020.7
20210804140517 68 4 0.0 0.0 0.00 0.00 0.00 79 1020.2
20210804140017 68 254 0.0 0.0 0.00 0.00 0.00 79 1020.2
20210804135512 68 270 0.0 0.0 0.00 0.00 0.00 81 1020.2
20210804135329 67 269 0.0 2.0 0.00 0.00 0.00 90 1020.4
20210804135012 67 267 0.0 0.0 0.00 0.00 0.00 83 1020.2
20210804134512 66 268 0.0 0.0 0.00 0.00 0.00 86 1020.2